Time;durP1;ratioP1;P1;durP2;ratioP2;P2;SDS_P1;SDS_P2;PMS_P1;PMS_P2;Temp;Humidity;BMP_temperature;BMP_pressure;BME280_temperature;BME280_humidity;BME280_pressure;Samples;Min_cycle;Max_cycle;Signal;HPM_P1;HPM_P2
2024/02/19 00:01:22;;;;;;;;;;;7.10;99.90;;;;;;5032359;28;19925;-63
2024/02/19 00:03:54;;;;;;;;;;;7.10;99.90;;;;;;5029672;28;19936;-63
2024/02/19 00:06:25;;;;;;;;;;;7.10;99.90;;;;;;5030035;28;19968;-63
2024/02/19 00:08:57;;;;;;;;;;;7.10;99.90;;;;;;5031209;28;20309;-63
2024/02/19 00:11:29;;;;;;;;;;;7.10;99.90;;;;;;5032128;28;19921;-63
2024/02/19 00:13:57;;;;;;;;;;;7.10;99.90;;;;;;5032857;28;19927;-63
2024/02/19 00:16:29;;;;;;;;;;;7.10;99.90;;;;;;5032454;28;20294;-63
2024/02/19 00:19:01;;;;;;;;;;;7.10;99.90;;;;;;5031413;28;19925;-63
2024/02/19 00:21:33;;;;;;;;;;;7.10;99.90;;;;;;5031384;28;19925;-64
2024/02/19 00:24:05;;;;;;;;;;;7.10;99.90;;;;;;5030245;28;19920;-64
2024/02/19 00:26:40;;;;;;;;;;;7.10;99.90;;;;;;4990088;28;19993;-63
2024/02/19 00:29:12;;;;;;;;;;;7.20;99.90;;;;;;5032312;28;20040;-63
2024/02/19 00:31:44;;;;;;;;;;;7.10;99.90;;;;;;5031911;28;20428;-63
2024/02/19 00:34:15;;;;;;;;;;;7.10;99.90;;;;;;5015144;28;20404;-64
2024/02/19 00:36:47;;;;;;;;;;;7.10;99.90;;;;;;5010687;28;20010;-64
2024/02/19 00:39:19;;;;;;;;;;;7.10;99.90;;;;;;5014706;28;20355;-64
2024/02/19 00:41:50;;;;;;;;;;;7.20;99.90;;;;;;5015212;28;19928;-63
2024/02/19 00:44:23;;;;;;;;;;;7.20;99.90;;;;;;5030368;28;19931;-63
2024/02/19 00:46:55;;;;;;;;;;;7.20;99.90;;;;;;5013215;28;19956;-63
2024/02/19 00:49:27;;;;;;;;;;;7.20;99.90;;;;;;5030695;28;19952;-63
2024/02/19 00:51:59;;;;;;;;;;;7.20;99.90;;;;;;5031087;28;19924;-64
2024/02/19 00:54:30;;;;;;;;;;;7.20;99.90;;;;;;5032207;28;20418;-65
2024/02/19 00:57:02;;;;;;;;;;;7.20;99.90;;;;;;5031791;28;19982;-65
2024/02/19 00:59:34;;;;;;;;;;;7.20;99.90;;;;;;5030699;28;19932;-64
2024/02/19 01:02:07;;;;;;;;;;;7.20;99.90;;;;;;5029045;28;19925;-63
2024/02/19 01:04:40;;;;;;;;;;;7.20;99.90;;;;;;5021310;28;19921;-63
2024/02/19 01:07:12;;;;;;;;;;;7.20;99.90;;;;;;5029244;28;20352;-63
2024/02/19 01:09:44;;;;;;;;;;;7.20;99.90;;;;;;5020557;28;19975;-63
2024/02/19 01:12:10;;;;;;;;;;;7.30;99.90;;;;;;5031348;28;19931;-63
2024/02/19 01:14:37;;;;;;;;;;;7.30;99.90;;;;;;5031272;28;20427;-63
2024/02/19 01:17:09;;;;;;;;;;;7.20;99.90;;;;;;5029566;28;20027;-63
2024/02/19 01:19:41;;;;;;;;;;;7.20;99.90;;;;;;5030801;28;19964;-63
2024/02/19 01:22:07;;;;;;;;;;;7.20;99.90;;;;;;5008785;28;20027;-63
2024/02/19 01:24:39;;;;;;;;;;;7.20;99.90;;;;;;5011032;28;20036;-63
2024/02/19 01:27:11;;;;;;;;;;;7.20;99.90;;;;;;5015269;28;19932;-63
2024/02/19 01:29:43;;;;;;;;;;;7.20;99.90;;;;;;5029110;28;20002;-63
2024/02/19 01:32:15;;;;;;;;;;;7.20;99.90;;;;;;5008114;28;19956;-63
2024/02/19 01:34:46;;;;;;;;;;;7.20;99.90;;;;;;5006932;28;20377;-63
2024/02/19 01:37:20;;;;;;;;;;;7.20;99.90;;;;;;5029177;28;19922;-63
2024/02/19 01:39:47;;;;;;;;;;;7.10;99.90;;;;;;5027917;28;19948;-63
2024/02/19 01:42:19;;;;;;;;;;;7.10;99.90;;;;;;5029992;28;20325;-63
2024/02/19 01:44:51;;;;;;;;;;;7.10;99.90;;;;;;5014900;28;19920;-63
2024/02/19 01:47:23;;;;;;;;;;;7.10;99.90;;;;;;5029103;28;20283;-63
2024/02/19 01:49:50;;;;;;;;;;;7.10;99.90;;;;;;5029022;28;20015;-63
2024/02/19 01:52:22;;;;;;;;;;;7.10;99.90;;;;;;5031284;28;19944;-63
2024/02/19 01:54:54;;;;;;;;;;;7.10;99.90;;;;;;5011551;28;20010;-63
2024/02/19 01:57:20;;;;;;;;;;;7.10;99.90;;;;;;5026803;28;19922;-63
2024/02/19 01:59:52;;;;;;;;;;;7.10;99.90;;;;;;5031435;28;19952;-63
2024/02/19 02:02:24;;;;;;;;;;;7.10;99.90;;;;;;5015836;28;19926;-63
2024/02/19 02:04:51;;;;;;;;;;;7.10;99.90;;;;;;5030427;28;20028;-63
2024/02/19 02:07:23;;;;;;;;;;;7.10;99.90;;;;;;5030582;28;19928;-63
2024/02/19 02:09:55;;;;;;;;;;;7.10;99.90;;;;;;5028046;28;19940;-63
2024/02/19 02:12:27;;;;;;;;;;;7.10;99.90;;;;;;5026392;28;20040;-63
2024/02/19 02:14:59;;;;;;;;;;;7.10;99.90;;;;;;5029968;28;19927;-63
2024/02/19 02:17:26;;;;;;;;;;;7.10;99.90;;;;;;5021727;28;19927;-63
2024/02/19 02:19:58;;;;;;;;;;;7.10;99.90;;;;;;5026875;28;19948;-63
2024/02/19 02:22:30;;;;;;;;;;;7.10;99.90;;;;;;5010343;28;19968;-63
2024/02/19 02:25:02;;;;;;;;;;;7.10;99.90;;;;;;5024382;28;20320;-63
2024/02/19 02:27:34;;;;;;;;;;;7.10;99.90;;;;;;5028157;28;19921;-63
2024/02/19 02:30:06;;;;;;;;;;;7.10;99.90;;;;;;5027725;28;19921;-63
2024/02/19 02:32:38;;;;;;;;;;;7.00;99.90;;;;;;5027745;28;19931;-63
2024/02/19 02:35:10;;;;;;;;;;;7.10;99.90;;;;;;5028302;28;20475;-63
2024/02/19 02:37:37;;;;;;;;;;;7.00;99.90;;;;;;5029707;28;20349;-63
2024/02/19 02:40:09;;;;;;;;;;;7.00;99.90;;;;;;5011926;28;19921;-63
2024/02/19 02:42:36;;;;;;;;;;;7.00;99.90;;;;;;5026421;28;20455;-63
2024/02/19 02:45:03;;;;;;;;;;;7.10;99.90;;;;;;5027707;28;19925;-63
2024/02/19 02:47:30;;;;;;;;;;;7.10;99.90;;;;;;5023739;28;19929;-63
2024/02/19 02:50:02;;;;;;;;;;;7.10;99.90;;;;;;5025921;28;19979;-63
2024/02/19 02:52:34;;;;;;;;;;;7.10;99.90;;;;;;5011936;28;20024;-63
2024/02/19 02:55:06;;;;;;;;;;;7.10;99.90;;;;;;5024796;28;19925;-63
2024/02/19 02:57:37;;;;;;;;;;;7.10;99.90;;;;;;5010209;28;19932;-63
2024/02/19 03:00:10;;;;;;;;;;;7.10;99.90;;;;;;5028475;28;19932;-63
2024/02/19 03:02:43;;;;;;;;;;;7.10;99.90;;;;;;5029271;28;19935;-63
2024/02/19 03:05:15;;;;;;;;;;;7.10;99.90;;;;;;5027900;28;20020;-63
2024/02/19 03:07:47;;;;;;;;;;;7.10;99.90;;;;;;5008867;28;19925;-64
2024/02/19 03:10:19;;;;;;;;;;;7.10;99.90;;;;;;5028063;28;19931;-64
2024/02/19 03:12:47;;;;;;;;;;;7.10;99.90;;;;;;5021020;28;20020;-64
2024/02/19 03:15:14;;;;;;;;;;;7.10;99.90;;;;;;5023417;28;20384;-64
2024/02/19 03:17:46;;;;;;;;;;;7.20;99.90;;;;;;5027914;28;19925;-64
2024/02/19 03:20:18;;;;;;;;;;;7.20;99.90;;;;;;5024197;28;20424;-64
2024/02/19 03:22:50;;;;;;;;;;;7.20;99.90;;;;;;5026195;28;19932;-64
2024/02/19 03:25:22;;;;;;;;;;;7.20;99.90;;;;;;5026611;28;19968;-64
2024/02/19 03:27:49;;;;;;;;;;;7.10;99.90;;;;;;5026917;28;20296;-64
2024/02/19 03:30:16;;;;;;;;;;;7.10;99.90;;;;;;5026949;28;19932;-63
2024/02/19 03:32:43;;;;;;;;;;;7.20;99.90;;;;;;5028045;28;19947;-63
2024/02/19 03:35:15;;;;;;;;;;;7.20;99.90;;;;;;5027583;28;19924;-63
2024/02/19 03:37:47;;;;;;;;;;;7.20;99.90;;;;;;5026158;28;19975;-63
2024/02/19 03:40:19;;;;;;;;;;;7.20;99.90;;;;;;5014487;28;20299;-63
2024/02/19 03:42:51;;;;;;;;;;;7.20;99.90;;;;;;5008882;28;20385;-64
2024/02/19 03:45:23;;;;;;;;;;;7.20;99.90;;;;;;5025391;28;20441;-64
2024/02/19 03:47:54;;;;;;;;;;;7.20;99.90;;;;;;5027871;28;20003;-63
2024/02/19 03:50:26;;;;;;;;;;;7.20;99.90;;;;;;5025363;28;19931;-64
2024/02/19 03:52:58;;;;;;;;;;;7.20;99.90;;;;;;5029330;28;19921;-64
2024/02/19 03:55:29;;;;;;;;;;;7.20;99.90;;;;;;5010997;28;19951;-64
2024/02/19 03:58:01;;;;;;;;;;;7.20;99.90;;;;;;5027967;28;19921;-64
2024/02/19 04:00:28;;;;;;;;;;;7.20;99.90;;;;;;5025042;28;19921;-64
2024/02/19 04:03:00;;;;;;;;;;;7.30;99.90;;;;;;5027961;28;20377;-64
2024/02/19 04:05:32;;;;;;;;;;;7.30;99.90;;;;;;5026170;28;20007;-64
2024/02/19 04:08:04;;;;;;;;;;;7.30;99.90;;;;;;5022958;28;19991;-64
2024/02/19 04:10:36;;;;;;;;;;;7.30;99.90;;;;;;5028642;28;19921;-64
2024/02/19 04:13:07;;;;;;;;;;;7.30;99.90;;;;;;5024553;28;20022;-64
2024/02/19 04:15:39;;;;;;;;;;;7.30;99.90;;;;;;5029846;28;19920;-64
2024/02/19 04:18:11;;;;;;;;;;;7.30;99.90;;;;;;5028548;28;19925;-64
2024/02/19 04:20:43;;;;;;;;;;;7.30;99.90;;;;;;5020452;28;19932;-64
2024/02/19 04:23:15;;;;;;;;;;;7.30;99.90;;;;;;5021376;28;19925;-64
2024/02/19 04:25:47;;;;;;;;;;;7.30;99.90;;;;;;5028258;28;20431;-64
2024/02/19 04:28:14;;;;;;;;;;;7.30;99.90;;;;;;5031373;28;19951;-64
2024/02/19 04:30:46;;;;;;;;;;;7.30;99.90;;;;;;5030357;28;19995;-64
2024/02/19 04:33:17;;;;;;;;;;;7.30;99.90;;;;;;5031668;28;19925;-64
2024/02/19 04:35:49;;;;;;;;;;;7.30;99.90;;;;;;5030565;28;19925;-64
2024/02/19 04:38:16;;;;;;;;;;;7.30;99.90;;;;;;5027803;28;19928;-64
2024/02/19 04:40:47;;;;;;;;;;;7.30;99.90;;;;;;5030298;28;19952;-64
2024/02/19 04:43:14;;;;;;;;;;;7.30;99.90;;;;;;5032903;28;19951;-64
2024/02/19 04:45:46;;;;;;;;;;;7.30;99.90;;;;;;5032897;28;19928;-64
2024/02/19 04:48:13;;;;;;;;;;;7.30;99.90;;;;;;5009261;28;19928;-64
2024/02/19 04:50:45;;;;;;;;;;;7.30;99.90;;;;;;5032719;28;19929;-64
2024/02/19 04:53:17;;;;;;;;;;;7.30;99.90;;;;;;5012324;28;19920;-64
2024/02/19 04:55:49;;;;;;;;;;;7.30;99.90;;;;;;5032030;28;20359;-64
2024/02/19 04:58:21;;;;;;;;;;;7.30;99.90;;;;;;5030542;28;19925;-63
2024/02/19 05:00:53;;;;;;;;;;;7.40;99.90;;;;;;5031142;28;19925;-63
2024/02/19 05:03:24;;;;;;;;;;;7.40;99.90;;;;;;5029406;28;19944;-64
2024/02/19 05:05:56;;;;;;;;;;;7.40;99.90;;;;;;5009032;28;20749;-64
2024/02/19 05:08:28;;;;;;;;;;;7.40;99.90;;;;;;5030064;28;20448;-63
2024/02/19 05:11:00;;;;;;;;;;;7.40;99.90;;;;;;5030659;28;19921;-63
2024/02/19 05:13:37;;;;;;;;;;;7.40;99.90;;;;;;5010408;28;19931;-64
2024/02/19 05:16:09;;;;;;;;;;;7.40;99.90;;;;;;5030331;28;19944;-64
2024/02/19 05:18:41;;;;;;;;;;;7.30;99.90;;;;;;5026605;28;20268;-64
2024/02/19 05:21:14;;;;;;;;;;;7.30;99.90;;;;;;5031085;28;19921;-64
2024/02/19 05:23:46;;;;;;;;;;;7.30;99.90;;;;;;5016164;28;19921;-64
2024/02/19 05:26:25;;;;;;;;;;;7.40;99.90;;;;;;5013984;28;19982;-64
2024/02/19 05:28:57;;;;;;;;;;;7.40;99.90;;;;;;5029090;28;19925;-63
2024/02/19 05:31:33;;;;;;;;;;;7.40;99.90;;;;;;5027949;28;19971;-63
2024/02/19 05:34:06;;;;;;;;;;;7.40;99.90;;;;;;5029592;28;20343;-63
2024/02/19 05:36:38;;;;;;;;;;;7.40;99.90;;;;;;5029932;28;20024;-62
2024/02/19 05:39:10;;;;;;;;;;;7.40;99.90;;;;;;5029367;28;19921;-64
2024/02/19 05:41:38;;;;;;;;;;;7.40;99.90;;;;;;5008045;28;19957;-63
2024/02/19 05:44:05;;;;;;;;;;;7.40;99.90;;;;;;5029309;28;19925;-63
2024/02/19 05:46:37;;;;;;;;;;;7.30;99.90;;;;;;5015012;28;19979;-63
2024/02/19 05:49:10;;;;;;;;;;;7.30;99.90;;;;;;5026479;28;19925;-63
2024/02/19 05:51:42;;;;;;;;;;;7.30;99.90;;;;;;5030566;28;19921;-63
2024/02/19 05:54:13;;;;;;;;;;;7.20;99.90;;;;;;5028542;28;19921;-63
2024/02/19 05:56:45;;;;;;;;;;;7.20;99.90;;;;;;5026518;28;19956;-63
2024/02/19 05:59:12;;;;;;;;;;;7.20;99.90;;;;;;5031725;28;19927;-64
2024/02/19 06:01:39;;;;;;;;;;;7.20;99.90;;;;;;5009759;28;19936;-64
2024/02/19 06:04:05;;;;;;;;;;;7.20;99.90;;;;;;5028913;28;19931;-63
2024/02/19 06:06:37;;;;;;;;;;;7.20;99.90;;;;;;5029087;28;19921;-63
2024/02/19 06:09:09;;;;;;;;;;;7.20;99.90;;;;;;5016888;28;19924;-64
2024/02/19 06:11:44;;;;;;;;;;;7.20;99.90;;;;;;5012626;28;19925;-63
2024/02/19 06:14:15;;;;;;;;;;;7.20;99.90;;;;;;5028328;28;19971;-63
2024/02/19 06:16:47;;;;;;;;;;;7.20;99.90;;;;;;5008340;28;19967;-64
2024/02/19 06:19:19;;;;;;;;;;;7.30;99.90;;;;;;5026669;28;19955;-63
2024/02/19 06:21:51;;;;;;;;;;;7.30;99.90;;;;;;5010201;28;19933;-63
2024/02/19 06:24:23;;;;;;;;;;;7.30;99.90;;;;;;5025823;28;19921;-63
2024/02/19 06:26:54;;;;;;;;;;;7.30;99.90;;;;;;5007917;28;20010;-63
2024/02/19 06:29:26;;;;;;;;;;;7.30;99.90;;;;;;5029102;28;19932;-63
2024/02/19 06:31:58;;;;;;;;;;;7.30;99.90;;;;;;5030787;28;20012;-63
2024/02/19 06:34:26;;;;;;;;;;;7.40;99.90;;;;;;5007918;28;20297;-63
2024/02/19 06:36:53;;;;;;;;;;;7.40;99.90;;;;;;5010212;28;20377;-63
2024/02/19 06:39:25;;;;;;;;;;;7.40;99.90;;;;;;5028157;28;20294;-63
2024/02/19 06:41:52;;;;;;;;;;;7.40;99.90;;;;;;5012380;28;19940;-63
2024/02/19 06:44:24;;;;;;;;;;;7.40;99.90;;;;;;5030316;28;19921;-62
2024/02/19 06:46:55;;;;;;;;;;;7.40;99.90;;;;;;5005153;28;20451;-63
2024/02/19 06:49:27;;;;;;;;;;;7.30;99.90;;;;;;5029901;28;20296;-63
2024/02/19 06:51:59;;;;;;;;;;;7.30;99.90;;;;;;5027071;28;20014;-63
2024/02/19 06:54:31;;;;;;;;;;;7.30;99.90;;;;;;5030489;28;20302;-62
2024/02/19 06:56:58;;;;;;;;;;;7.30;99.90;;;;;;5009838;28;20028;-63
2024/02/19 06:59:30;;;;;;;;;;;7.30;99.90;;;;;;5025689;28;19925;-63
2024/02/19 07:01:57;;;;;;;;;;;7.30;99.90;;;;;;5026832;28;19921;-63
2024/02/19 07:04:29;;;;;;;;;;;7.30;99.90;;;;;;5027612;28;19971;-63
2024/02/19 07:06:56;;;;;;;;;;;7.30;99.90;;;;;;5006402;28;19929;-62
2024/02/19 07:09:23;;;;;;;;;;;7.30;99.90;;;;;;5027659;28;19927;-63
2024/02/19 07:11:55;;;;;;;;;;;7.30;99.90;;;;;;5011267;28;19931;-64
2024/02/19 07:14:22;;;;;;;;;;;7.40;99.90;;;;;;5007182;28;19927;-64
2024/02/19 07:16:54;;;;;;;;;;;7.40;99.90;;;;;;5006508;28;19921;-64
2024/02/19 07:19:25;;;;;;;;;;;7.40;99.90;;;;;;5028218;28;19925;-64
2024/02/19 07:21:57;;;;;;;;;;;7.50;99.90;;;;;;4995060;28;20277;-64
2024/02/19 07:24:26;;;;;;;;;;;7.50;99.90;;;;;;5009760;28;19943;-64
2024/02/19 07:26:58;;;;;;;;;;;7.50;99.90;;;;;;5027683;28;19925;-64
2024/02/19 07:29:25;;;;;;;;;;;7.60;99.90;;;;;;5027860;28;19920;-65
2024/02/19 07:31:52;;;;;;;;;;;7.60;99.90;;;;;;5015611;28;19929;-64
2024/02/19 07:34:24;;;;;;;;;;;7.60;99.90;;;;;;5031077;28;19921;-64
2024/02/19 07:36:56;;;;;;;;;;;7.70;99.90;;;;;;5019453;28;19944;-64
2024/02/19 07:39:28;;;;;;;;;;;7.70;99.90;;;;;;5029276;28;20396;-64
2024/02/19 07:42:00;;;;;;;;;;;7.80;99.90;;;;;;5009555;28;19921;-64
2024/02/19 07:44:32;;;;;;;;;;;7.80;99.90;;;;;;5025795;28;19927;-64
2024/02/19 07:46:59;;;;;;;;;;;7.80;99.90;;;;;;5026816;28;19975;-64
2024/02/19 07:49:25;;;;;;;;;;;7.80;99.90;;;;;;5029739;28;19927;-64
2024/02/19 07:51:52;;;;;;;;;;;7.90;99.90;;;;;;5026924;28;19967;-64
2024/02/19 07:54:24;;;;;;;;;;;7.80;99.90;;;;;;5007101;28;20030;-64
2024/02/19 07:56:56;;;;;;;;;;;7.80;99.90;;;;;;5011116;28;19978;-63
2024/02/19 07:59:28;;;;;;;;;;;7.90;99.90;;;;;;5025271;28;19927;-64
2024/02/19 08:01:55;;;;;;;;;;;7.90;99.90;;;;;;5029667;28;19924;-63
2024/02/19 08:04:27;;;;;;;;;;;8.00;99.90;;;;;;5020502;28;19925;-64
2024/02/19 08:06:54;;;;;;;;;;;8.00;99.90;;;;;;5034334;28;19951;-64
2024/02/19 08:09:22;;;;;;;;;;;8.00;99.90;;;;;;5031420;28;19932;-64
2024/02/19 08:11:54;;;;;;;;;;;8.00;99.90;;;;;;5030399;28;19971;-64
2024/02/19 08:14:26;;;;;;;;;;;8.00;99.90;;;;;;5027692;28;20023;-64
2024/02/19 08:16:57;;;;;;;;;;;8.00;99.90;;;;;;5013756;28;19928;-64
2024/02/19 08:19:29;;;;;;;;;;;8.00;99.90;;;;;;5032472;28;20551;-64
2024/02/19 08:22:01;;;;;;;;;;;8.00;99.90;;;;;;5030093;28;19929;-64
2024/02/19 08:24:33;;;;;;;;;;;8.00;99.90;;;;;;5032671;28;19940;-63
2024/02/19 08:27:00;;;;;;;;;;;8.00;99.90;;;;;;5014584;28;19921;-63
2024/02/19 08:29:32;;;;;;;;;;;8.00;99.90;;;;;;5032614;28;19921;-64
2024/02/19 08:32:04;;;;;;;;;;;8.10;99.90;;;;;;5030715;28;19928;-63
2024/02/19 08:34:30;;;;;;;;;;;8.10;99.90;;;;;;5032233;28;20389;-64
2024/02/19 08:36:57;;;;;;;;;;;8.10;99.90;;;;;;5032050;28;20399;-64
2024/02/19 08:39:29;;;;;;;;;;;8.10;99.90;;;;;;5015342;28;19924;-63
2024/02/19 08:42:01;;;;;;;;;;;8.20;99.90;;;;;;5031053;28;20012;-64
2024/02/19 08:44:33;;;;;;;;;;;8.20;99.90;;;;;;5032310;28;20300;-64
2024/02/19 08:47:07;;;;;;;;;;;8.30;99.90;;;;;;5032864;28;20011;-63
2024/02/19 08:49:40;;;;;;;;;;;8.30;99.90;;;;;;5029765;28;20389;-63
2024/02/19 08:52:13;;;;;;;;;;;8.30;99.90;;;;;;5031822;28;19971;-63
2024/02/19 08:54:45;;;;;;;;;;;8.30;99.90;;;;;;5014692;28;19936;-63
2024/02/19 08:57:17;;;;;;;;;;;8.40;99.90;;;;;;5030045;28;19936;-63
2024/02/19 08:59:49;;;;;;;;;;;8.40;99.90;;;;;;5032077;28;19964;-63
2024/02/19 09:02:24;;;;;;;;;;;8.30;99.90;;;;;;5030512;28;19927;-63
2024/02/19 09:04:56;;;;;;;;;;;8.20;99.90;;;;;;5010488;28;20031;-62
2024/02/19 09:07:28;;;;;;;;;;;8.20;99.90;;;;;;5030401;28;19929;-63
2024/02/19 09:09:59;;;;;;;;;;;8.20;99.90;;;;;;5032357;28;20017;-63
2024/02/19 09:12:26;;;;;;;;;;;8.20;99.90;;;;;;5033360;28;20743;-63
2024/02/19 09:14:58;;;;;;;;;;;8.20;99.90;;;;;;5027557;28;19956;-63
2024/02/19 09:17:30;;;;;;;;;;;8.20;99.90;;;;;;5027563;28;19931;-63
2024/02/19 09:20:03;;;;;;;;;;;8.20;99.90;;;;;;5029801;28;19921;-63
2024/02/19 09:22:35;;;;;;;;;;;8.20;99.90;;;;;;5009708;28;20398;-63
2024/02/19 09:25:07;;;;;;;;;;;8.30;99.90;;;;;;5014230;28;20472;-63
2024/02/19 09:27:39;;;;;;;;;;;8.30;99.90;;;;;;5031057;28;19922;-62
2024/02/19 09:30:12;;;;;;;;;;;8.30;99.90;;;;;;5029866;28;20378;-63
2024/02/19 09:32:43;;;;;;;;;;;8.30;99.90;;;;;;5029961;28;20318;-63
2024/02/19 09:35:18;;;;;;;;;;;8.30;99.90;;;;;;5030479;28;20400;-63
2024/02/19 09:37:50;;;;;;;;;;;8.30;99.90;;;;;;5029477;28;19979;-63
2024/02/19 09:40:23;;;;;;;;;;;8.30;99.90;;;;;;5010387;28;19927;-63
2024/02/19 09:42:55;;;;;;;;;;;8.30;99.90;;;;;;5029711;28;19931;-63
2024/02/19 09:45:27;;;;;;;;;;;8.30;99.90;;;;;;5008296;28;20415;-63
2024/02/19 09:48:00;;;;;;;;;;;8.20;99.90;;;;;;5010972;28;19921;-63
2024/02/19 09:50:32;;;;;;;;;;;8.30;99.90;;;;;;5015615;28;19935;-63
2024/02/19 09:53:11;;;;;;;;;;;8.30;99.90;;;;;;5033425;28;20020;-63
2024/02/19 09:55:43;;;;;;;;;;;8.20;99.90;;;;;;5030778;28;20338;-63
2024/02/19 09:58:15;;;;;;;;;;;8.20;99.90;;;;;;5031006;28;19929;-63
2024/02/19 10:00:42;;;;;;;;;;;8.30;99.90;;;;;;5029801;28;20274;-63
2024/02/19 10:03:16;;;;;;;;;;;8.30;99.90;;;;;;5011117;28;20046;-63
2024/02/19 10:05:48;;;;;;;;;;;8.30;99.90;;;;;;5029112;28;19924;-63
2024/02/19 10:08:20;;;;;;;;;;;8.30;99.90;;;;;;5030676;28;19925;-63
2024/02/19 10:10:56;;;;;;;;;;;8.30;99.90;;;;;;5028014;28;20032;-63
2024/02/19 10:13:23;;;;;;;;;;;8.40;99.90;;;;;;5029813;28;19963;-62
2024/02/19 10:15:55;;;;;;;;;;;8.40;99.90;;;;;;5030460;28;20377;-63
2024/02/19 10:18:27;;;;;;;;;;;8.40;99.90;;;;;;5029864;28;19940;-63
2024/02/19 10:20:59;;;;;;;;;;;8.40;99.90;;;;;;5013743;28;19961;-63
2024/02/19 10:23:31;;;;;;;;;;;8.40;99.90;;;;;;5028567;28;20363;-63
2024/02/19 10:26:03;;;;;;;;;;;8.40;99.90;;;;;;5031792;28;19921;-63
2024/02/19 10:28:35;;;;;;;;;;;8.40;99.90;;;;;;5029097;28;19980;-63
2024/02/19 10:31:07;;;;;;;;;;;8.40;99.90;;;;;;5027461;28;19987;-63
2024/02/19 10:33:41;;;;;;;;;;;8.30;99.90;;;;;;5020028;28;19921;-63
2024/02/19 10:36:15;;;;;;;;;;;8.30;99.90;;;;;;5008173;28;19948;-63
2024/02/19 10:38:47;;;;;;;;;;;8.30;99.90;;;;;;5030562;28;19925;-63
2024/02/19 10:41:21;;;;;;;;;;;8.40;99.90;;;;;;5030134;28;19928;-63
2024/02/19 10:43:52;;;;;;;;;;;8.30;99.90;;;;;;5029112;28;19947;-62
2024/02/19 10:46:24;;;;;;;;;;;8.40;99.90;;;;;;5029968;28;19987;-63
2024/02/19 10:48:56;;;;;;;;;;;8.40;99.90;;;;;;5030141;28;19931;-63
2024/02/19 10:51:24;;;;;;;;;;;8.40;99.90;;;;;;5030207;28;19921;-63
2024/02/19 10:53:57;;;;;;;;;;;8.40;99.90;;;;;;5028588;28;19968;-63
2024/02/19 10:56:39;;;;;;;;;;;8.50;99.90;;;;;;5028425;28;19929;-63
2024/02/19 10:59:11;;;;;;;;;;;8.50;99.90;;;;;;5027933;28;19924;-63
2024/02/19 11:01:46;;;;;;;;;;;8.60;99.90;;;;;;5030705;28;20007;-63
2024/02/19 11:04:23;;;;;;;;;;;8.60;99.90;;;;;;5014482;28;19928;-63
2024/02/19 11:06:55;;;;;;;;;;;8.60;99.90;;;;;;5028169;28;19925;-63
2024/02/19 11:09:33;;;;;;;;;;;8.60;99.90;;;;;;5027228;28;20421;-63
2024/02/19 11:12:12;;;;;;;;;;;8.60;99.90;;;;;;5008781;28;19996;-63
2024/02/19 11:14:45;;;;;;;;;;;8.70;99.90;;;;;;5010913;28;20313;-63
2024/02/19 11:17:17;;;;;;;;;;;8.70;99.90;;;;;;5027610;28;20059;-63
2024/02/19 11:19:51;;;;;;;;;;;8.70;99.90;;;;;;5029156;28;19975;-63
2024/02/19 11:22:30;;;;;;;;;;;8.70;99.90;;;;;;5025939;28;20008;-63
2024/02/19 11:25:02;;;;;;;;;;;8.80;99.90;;;;;;5028782;28;19925;-64
2024/02/19 11:27:33;;;;;;;;;;;8.90;99.90;;;;;;5029132;28;19921;-63
2024/02/19 11:30:06;;;;;;;;;;;8.90;99.90;;;;;;5030029;28;19932;-63
2024/02/19 11:32:38;;;;;;;;;;;8.90;99.90;;;;;;5029317;28;19925;-63
2024/02/19 11:35:10;;;;;;;;;;;8.90;99.90;;;;;;5030645;28;19925;-63
2024/02/19 11:37:43;;;;;;;;;;;8.90;99.90;;;;;;5031216;28;20446;-63
2024/02/19 11:40:14;;;;;;;;;;;8.80;99.90;;;;;;5032632;28;19932;-63
2024/02/19 11:42:47;;;;;;;;;;;8.90;99.90;;;;;;5031579;28;19924;-63
2024/02/19 11:45:19;;;;;;;;;;;9.00;99.90;;;;;;5011893;28;19921;-63
2024/02/19 11:47:51;;;;;;;;;;;8.90;99.90;;;;;;5017271;28;19925;-63
2024/02/19 11:50:28;;;;;;;;;;;8.90;99.90;;;;;;5033254;28;20003;-63
2024/02/19 11:53:02;;;;;;;;;;;8.80;99.90;;;;;;5033177;28;19927;-63
2024/02/19 11:55:35;;;;;;;;;;;8.80;99.90;;;;;;5032338;28;19975;-63
2024/02/19 11:58:07;;;;;;;;;;;8.70;99.90;;;;;;5032747;28;20011;-63
2024/02/19 12:00:39;;;;;;;;;;;8.70;99.90;;;;;;5032181;28;20003;-63
2024/02/19 12:03:12;;;;;;;;;;;8.70;99.90;;;;;;5032091;28;19925;-63
2024/02/19 12:05:45;;;;;;;;;;;8.70;99.90;;;;;;5029760;28;19928;-63
2024/02/19 12:08:17;;;;;;;;;;;8.60;99.90;;;;;;5032754;28;20339;-63
2024/02/19 12:10:44;;;;;;;;;;;8.50;99.90;;;;;;5032972;28;20440;-63
2024/02/19 12:13:16;;;;;;;;;;;8.50;99.90;;;;;;5012553;28;19932;-63
2024/02/19 12:15:48;;;;;;;;;;;8.50;99.90;;;;;;5013949;28;19925;-63
2024/02/19 12:18:20;;;;;;;;;;;8.40;99.90;;;;;;5032257;28;19928;-63
2024/02/19 12:20:52;;;;;;;;;;;8.40;99.90;;;;;;5028620;28;20109;-63
2024/02/19 12:23:24;;;;;;;;;;;8.40;99.90;;;;;;5031160;28;19931;-63
2024/02/19 12:25:55;;;;;;;;;;;8.30;99.90;;;;;;5031903;28;20397;-63
2024/02/19 12:28:27;;;;;;;;;;;8.30;99.90;;;;;;5028399;28;19936;-63
2024/02/19 12:30:59;;;;;;;;;;;8.30;99.90;;;;;;5030114;28;20440;-63
2024/02/19 12:33:31;;;;;;;;;;;8.30;99.90;;;;;;5030342;28;20389;-63
2024/02/19 12:36:12;;;;;;;;;;;8.20;99.90;;;;;;5029606;28;20016;-63
2024/02/19 12:38:44;;;;;;;;;;;8.30;99.90;;;;;;5029407;28;19925;-63
2024/02/19 12:41:16;;;;;;;;;;;8.30;99.90;;;;;;5031087;28;20963;-63
2024/02/19 12:43:51;;;;;;;;;;;8.30;99.90;;;;;;5034912;28;20011;-63
2024/02/19 12:46:24;;;;;;;;;;;8.30;99.90;;;;;;5030436;28;19925;-63
2024/02/19 12:48:58;;;;;;;;;;;8.30;99.90;;;;;;5014738;28;20014;-63
2024/02/19 12:51:33;;;;;;;;;;;8.30;99.90;;;;;;5029249;28;19928;-62
2024/02/19 12:54:05;;;;;;;;;;;8.40;99.90;;;;;;5024927;28;19924;-63
2024/02/19 12:56:36;;;;;;;;;;;8.40;99.90;;;;;;5028684;28;19925;-63
2024/02/19 12:59:08;;;;;;;;;;;8.40;99.90;;;;;;5031956;28;19928;-63
2024/02/19 13:01:40;;;;;;;;;;;8.40;99.90;;;;;;5030853;28;19927;-63
2024/02/19 13:04:12;;;;;;;;;;;8.40;99.90;;;;;;5005888;28;19936;-63
2024/02/19 13:06:44;;;;;;;;;;;8.40;99.90;;;;;;5013045;28;19928;-63
2024/02/19 13:09:16;;;;;;;;;;;8.50;99.90;;;;;;5021271;28;20401;-63
2024/02/19 13:11:48;;;;;;;;;;;8.50;99.90;;;;;;5029942;28;20408;-63
2024/02/19 13:14:15;;;;;;;;;;;8.50;99.90;;;;;;5030464;28;19956;-63
2024/02/19 13:16:47;;;;;;;;;;;8.50;99.90;;;;;;5031255;28;19925;-63
2024/02/19 13:19:19;;;;;;;;;;;8.50;99.90;;;;;;5009443;28;19921;-63
2024/02/19 13:21:51;;;;;;;;;;;8.50;99.90;;;;;;5005047;28;20011;-63
2024/02/19 13:24:23;;;;;;;;;;;8.50;99.90;;;;;;5030757;28;19921;-63
2024/02/19 13:26:55;;;;;;;;;;;8.60;99.90;;;;;;5031096;28;19921;-64
2024/02/19 13:29:26;;;;;;;;;;;8.60;99.90;;;;;;5030486;28;19925;-67
2024/02/19 13:31:58;;;;;;;;;;;8.50;99.90;;;;;;5031209;28;19925;-64
2024/02/19 13:34:30;;;;;;;;;;;8.50;99.90;;;;;;5022528;28;19921;-64
2024/02/19 13:36:57;;;;;;;;;;;8.60;99.90;;;;;;5031108;28;19925;-64
2024/02/19 13:39:29;;;;;;;;;;;8.50;99.90;;;;;;5017930;28;19944;-64
2024/02/19 13:42:01;;;;;;;;;;;8.60;99.90;;;;;;5029904;28;19925;-64
2024/02/19 13:44:33;;;;;;;;;;;8.60;99.90;;;;;;5013493;28;19925;-63
2024/02/19 13:47:05;;;;;;;;;;;8.50;99.90;;;;;;5030973;28;19960;-64
2024/02/19 13:49:37;;;;;;;;;;;8.50;99.90;;;;;;5014192;28;19921;-64
2024/02/19 13:52:11;;;;;;;;;;;8.50;99.90;;;;;;5017368;28;20359;-64
2024/02/19 13:54:43;;;;;;;;;;;8.50;99.90;;;;;;5027788;28;20023;-64
2024/02/19 13:57:15;;;;;;;;;;;8.50;99.90;;;;;;5028933;28;20304;-64
2024/02/19 13:59:42;;;;;;;;;;;8.40;99.90;;;;;;5029732;28;19921;-64
2024/02/19 14:02:14;;;;;;;;;;;8.40;99.90;;;;;;5030141;28;19929;-64
2024/02/19 14:04:46;;;;;;;;;;;8.40;99.90;;;;;;5030021;28;20096;-64
2024/02/19 14:07:18;;;;;;;;;;;8.30;99.90;;;;;;5030513;28;20032;-64
2024/02/19 14:09:45;;;;;;;;;;;8.30;99.90;;;;;;5030631;28;20019;-64
2024/02/19 14:12:17;;;;;;;;;;;8.30;99.90;;;;;;5029286;28;19921;-64
2024/02/19 14:14:49;;;;;;;;;;;8.30;99.90;;;;;;5011646;28;19929;-64
2024/02/19 14:17:20;;;;;;;;;;;8.30;99.90;;;;;;5012854;28;19925;-64
2024/02/19 14:19:53;;;;;;;;;;;8.30;99.90;;;;;;5030208;28;19929;-64
2024/02/19 14:22:24;;;;;;;;;;;8.30;99.90;;;;;;5029640;28;20361;-64
2024/02/19 14:24:56;;;;;;;;;;;8.30;99.90;;;;;;5029156;28;20102;-64
2024/02/19 14:27:28;;;;;;;;;;;8.40;99.90;;;;;;5029644;28;19925;-64
2024/02/19 14:30:00;;;;;;;;;;;8.40;99.90;;;;;;5015785;28;19925;-64
2024/02/19 14:32:27;;;;;;;;;;;8.40;99.90;;;;;;5029454;28;19964;-64
2024/02/19 14:34:59;;;;;;;;;;;8.50;99.90;;;;;;5028718;28;20018;-64
2024/02/19 14:37:34;;;;;;;;;;;8.50;99.90;;;;;;5031084;28;19967;-64
2024/02/19 14:40:13;;;;;;;;;;;8.50;99.90;;;;;;5031344;28;20293;-64
2024/02/19 14:42:48;;;;;;;;;;;8.40;99.90;;;;;;5031494;28;20307;-64
2024/02/19 14:45:15;;;;;;;;;;;8.50;99.90;;;;;;5030966;28;19925;-64
2024/02/19 14:47:43;;;;;;;;;;;8.60;99.90;;;;;;5031071;28;19931;-64
2024/02/19 14:50:11;;;;;;;;;;;8.70;99.90;;;;;;5030476;28;19967;-64
2024/02/19 14:52:38;;;;;;;;;;;8.80;99.90;;;;;;5031754;28;19927;-64
2024/02/19 14:55:11;;;;;;;;;;;9.00;99.90;;;;;;5002321;28;20032;-64